sensor_id;sensor_type;location;lat;lon;timestamp;P1;durP1;ratioP1;P2;durP2;ratioP2
68284;SDS011;55114;52.052;5.238;2023-07-13T20:41:48;6.63;;;1.80;;
68284;SDS011;55114;52.052;5.238;2023-07-13T20:44:17;6.18;;;1.85;;
68284;SDS011;55114;52.052;5.238;2023-07-13T20:46:45;4.78;;;1.80;;
68284;SDS011;55114;52.052;5.238;2023-07-13T20:49:13;7.10;;;2.00;;
68284;SDS011;55114;52.052;5.238;2023-07-13T20:51:41;4.45;;;1.80;;
68284;SDS011;55114;52.052;5.238;2023-07-13T20:54:12;4.93;;;2.03;;
68284;SDS011;55114;52.052;5.238;2023-07-13T20:56:40;5.88;;;2.22;;
68284;SDS011;55114;52.052;5.238;2023-07-13T20:59:09;5.97;;;2.10;;
68284;SDS011;55114;52.052;5.238;2023-07-13T21:01:37;6.77;;;2.20;;
68284;SDS011;55114;52.052;5.238;2023-07-13T21:04:05;5.55;;;2.10;;
68284;SDS011;55114;52.052;5.238;2023-07-13T21:06:33;5.32;;;1.95;;
68284;SDS011;55114;52.052;5.238;2023-07-13T21:09:04;5.57;;;2.42;;
68284;SDS011;55114;52.052;5.238;2023-07-13T21:11:35;8.10;;;2.55;;
68284;SDS011;55114;52.052;5.238;2023-07-13T21:14:03;10.67;;;2.60;;
68284;SDS011;55114;52.052;5.238;2023-07-13T21:16:30;5.60;;;2.45;;
68284;SDS011;55114;52.052;5.238;2023-07-13T21:18:57;8.15;;;2.55;;
68284;SDS011;55114;52.052;5.238;2023-07-13T21:21:25;8.05;;;2.67;;
68284;SDS011;55114;52.052;5.238;2023-07-13T21:23:52;7.03;;;2.60;;
68284;SDS011;55114;52.052;5.238;2023-07-13T21:26:20;7.00;;;2.57;;
68284;SDS011;55114;52.052;5.238;2023-07-13T21:28:48;7.75;;;2.70;;
68284;SDS011;55114;52.052;5.238;2023-07-13T21:31:29;5.75;;;2.40;;
68284;SDS011;55114;52.052;5.238;2023-07-13T21:33:58;7.25;;;3.05;;
68284;SDS011;55114;52.052;5.238;2023-07-13T21:36:26;6.05;;;2.97;;
68284;SDS011;55114;52.052;5.238;2023-07-13T21:38:55;7.07;;;2.93;;
68284;SDS011;55114;52.052;5.238;2023-07-13T21:41:32;7.43;;;3.30;;
68284;SDS011;55114;52.052;5.238;2023-07-13T21:43:59;6.78;;;3.15;;
68284;SDS011;55114;52.052;5.238;2023-07-13T21:46:28;6.22;;;2.90;;
68284;SDS011;55114;52.052;5.238;2023-07-13T21:48:56;8.82;;;3.47;;
68284;SDS011;55114;52.052;5.238;2023-07-13T21:51:24;6.47;;;3.40;;
68284;SDS011;55114;52.052;5.238;2023-07-13T21:53:52;9.30;;;3.40;;
68284;SDS011;55114;52.052;5.238;2023-07-13T21:56:26;7.07;;;3.40;;
68284;SDS011;55114;52.052;5.238;2023-07-13T21:58:56;8.18;;;3.67;;
68284;SDS011;55114;52.052;5.238;2023-07-13T22:01:26;7.32;;;3.75;;
68284;SDS011;55114;52.052;5.238;2023-07-13T22:03:56;7.30;;;4.17;;
68284;SDS011;55114;52.052;5.238;2023-07-13T22:06:24;9.25;;;3.70;;
68284;SDS011;55114;52.052;5.238;2023-07-13T22:08:52;7.57;;;3.97;;
68284;SDS011;55114;52.052;5.238;2023-07-13T22:11:21;7.88;;;4.00;;
68284;SDS011;55114;52.052;5.238;2023-07-13T22:13:49;8.27;;;4.20;;
68284;SDS011;55114;52.052;5.238;2023-07-13T22:16:19;9.10;;;4.07;;
68284;SDS011;55114;52.052;5.238;2023-07-13T22:18:47;9.77;;;4.10;;
68284;SDS011;55114;52.052;5.238;2023-07-13T22:21:15;8.75;;;4.13;;
68284;SDS011;55114;52.052;5.238;2023-07-13T22:23:43;10.27;;;4.35;;
68284;SDS011;55114;52.052;5.238;2023-07-13T22:26:14;8.93;;;3.80;;
68284;SDS011;55114;52.052;5.238;2023-07-13T22:28:44;8.20;;;3.80;;
68284;SDS011;55114;52.052;5.238;2023-07-13T22:31:11;7.70;;;3.75;;
68284;SDS011;55114;52.052;5.238;2023-07-13T22:33:39;9.57;;;4.10;;
68284;SDS011;55114;52.052;5.238;2023-07-13T22:36:08;11.07;;;3.92;;
68284;SDS011;55114;52.052;5.238;2023-07-13T22:38:36;8.40;;;4.18;;
68284;SDS011;55114;52.052;5.238;2023-07-13T22:41:05;8.43;;;4.10;;
68284;SDS011;55114;52.052;5.238;2023-07-13T22:43:33;7.82;;;4.10;;
68284;SDS011;55114;52.052;5.238;2023-07-13T22:46:01;9.32;;;3.90;;
68284;SDS011;55114;52.052;5.238;2023-07-13T22:48:36;7.68;;;3.70;;
68284;SDS011;55114;52.052;5.238;2023-07-13T22:51:15;7.57;;;3.50;;
68284;SDS011;55114;52.052;5.238;2023-07-13T22:53:43;7.57;;;3.53;;
68284;SDS011;55114;52.052;5.238;2023-07-13T22:56:11;8.30;;;3.60;;
68284;SDS011;55114;52.052;5.238;2023-07-13T22:58:38;7.90;;;3.63;;
68284;SDS011;55114;52.052;5.238;2023-07-13T23:01:09;6.57;;;3.33;;
68284;SDS011;55114;52.052;5.238;2023-07-13T23:03:41;7.25;;;3.75;;
68284;SDS011;55114;52.052;5.238;2023-07-13T23:06:11;8.10;;;3.83;;
68284;SDS011;55114;52.052;5.238;2023-07-13T23:08:39;9.25;;;3.58;;
68284;SDS011;55114;52.052;5.238;2023-07-13T23:11:07;9.05;;;3.90;;
68284;SDS011;55114;52.052;5.238;2023-07-13T23:13:36;7.15;;;3.70;;
68284;SDS011;55114;52.052;5.238;2023-07-13T23:16:04;8.63;;;3.72;;
68284;SDS011;55114;52.052;5.238;2023-07-13T23:18:35;7.30;;;3.60;;
68284;SDS011;55114;52.052;5.238;2023-07-13T23:21:03;7.75;;;3.50;;
68284;SDS011;55114;52.052;5.238;2023-07-13T23:23:30;9.27;;;3.78;;
68284;SDS011;55114;52.052;5.238;2023-07-13T23:25:58;7.80;;;3.53;;
68284;SDS011;55114;52.052;5.238;2023-07-13T23:28:26;6.68;;;3.40;;
68284;SDS011;55114;52.052;5.238;2023-07-13T23:30:53;7.67;;;3.40;;
68284;SDS011;55114;52.052;5.238;2023-07-13T23:33:26;7.10;;;2.90;;
68284;SDS011;55114;52.052;5.238;2023-07-13T23:35:55;6.85;;;3.25;;
68284;SDS011;55114;52.052;5.238;2023-07-13T23:38:27;5.78;;;3.25;;
68284;SDS011;55114;52.052;5.238;2023-07-13T23:40:54;7.75;;;3.30;;
68284;SDS011;55114;52.052;5.238;2023-07-13T23:43:23;7.70;;;3.20;;
68284;SDS011;55114;52.052;5.238;2023-07-13T23:45:51;8.70;;;3.40;;
68284;SDS011;55114;52.052;5.238;2023-07-13T23:48:18;8.68;;;2.92;;
68284;SDS011;55114;52.052;5.238;2023-07-13T23:50:52;9.50;;;3.22;;
68284;SDS011;55114;52.052;5.238;2023-07-13T23:53:19;8.85;;;3.35;;
68284;SDS011;55114;52.052;5.238;2023-07-13T23:55:47;6.87;;;3.27;;
68284;SDS011;55114;52.052;5.238;2023-07-13T23:58:15;8.70;;;3.35;;
